sensor_id;sensor_type;location;lat;lon;timestamp;P1;durP1;ratioP1;P2;durP2;ratioP2
59681;SDS011;45548;39.530;-9.118;2022-08-21T07:32:31;60.60;;;21.70;;
59681;SDS011;45548;39.530;-9.118;2022-08-21T07:34:57;62.40;;;21.88;;
59681;SDS011;45548;39.530;-9.118;2022-08-21T07:37:23;57.65;;;19.85;;
59681;SDS011;45548;39.530;-9.118;2022-08-21T07:39:49;44.47;;;16.38;;
59681;SDS011;45548;39.530;-9.118;2022-08-21T07:42:16;49.63;;;16.80;;
59681;SDS011;45548;39.530;-9.118;2022-08-21T07:45:34;47.70;;;14.95;;
59681;SDS011;45548;39.530;-9.118;2022-08-21T07:48:58;58.65;;;18.67;;
59681;SDS011;45548;39.530;-9.118;2022-08-21T07:52:22;44.38;;;14.57;;
59681;SDS011;45548;39.530;-9.118;2022-08-21T07:55:46;35.47;;;12.57;;
59681;SDS011;45548;39.530;-9.118;2022-08-21T07:59:10;41.55;;;15.23;;
59681;SDS011;45548;39.530;-9.118;2022-08-21T08:02:37;36.92;;;13.85;;
59681;SDS011;45548;39.530;-9.118;2022-08-21T08:06:01;34.97;;;11.93;;
59681;SDS011;45548;39.530;-9.118;2022-08-21T08:09:25;42.47;;;13.43;;
59681;SDS011;45548;39.530;-9.118;2022-08-21T08:12:50;35.85;;;11.90;;
59681;SDS011;45548;39.530;-9.118;2022-08-21T08:16:15;35.97;;;11.73;;
59681;SDS011;45548;39.530;-9.118;2022-08-21T08:19:39;43.58;;;12.93;;
59681;SDS011;45548;39.530;-9.118;2022-08-21T08:23:03;34.95;;;12.00;;
59681;SDS011;45548;39.530;-9.118;2022-08-21T08:26:28;41.80;;;13.52;;
59681;SDS011;45548;39.530;-9.118;2022-08-21T08:29:52;38.40;;;11.05;;
59681;SDS011;45548;39.530;-9.118;2022-08-21T08:33:17;31.90;;;11.07;;
59681;SDS011;45548;39.530;-9.118;2022-08-21T08:36:41;37.83;;;12.20;;
59681;SDS011;45548;39.530;-9.118;2022-08-21T08:40:18;34.45;;;11.43;;
59681;SDS011;45548;39.530;-9.118;2022-08-21T08:43:51;36.58;;;9.95;;
59681;SDS011;45548;39.530;-9.118;2022-08-21T08:47:20;27.50;;;8.95;;
59681;SDS011;45548;39.530;-9.118;2022-08-21T08:51:06;29.35;;;9.20;;
59681;SDS011;45548;39.530;-9.118;2022-08-21T08:54:55;32.08;;;10.88;;
59681;SDS011;45548;39.530;-9.118;2022-08-21T08:58:23;28.40;;;9.38;;
59681;SDS011;45548;39.530;-9.118;2022-08-21T09:01:51;29.92;;;9.15;;
59681;SDS011;45548;39.530;-9.118;2022-08-21T09:05:20;31.40;;;9.23;;
59681;SDS011;45548;39.530;-9.118;2022-08-21T09:12:56;33.70;;;8.85;;
59681;SDS011;45548;39.530;-9.118;2022-08-21T09:27:20;20.02;;;6.25;;
59681;SDS011;45548;39.530;-9.118;2022-08-21T09:30:44;26.15;;;7.15;;
59681;SDS011;45548;39.530;-9.118;2022-08-21T09:34:11;19.48;;;5.85;;
59681;SDS011;45548;39.530;-9.118;2022-08-21T09:41:25;21.92;;;6.65;;
59681;SDS011;45548;39.530;-9.118;2022-08-21T09:48:25;25.85;;;7.90;;
59681;SDS011;45548;39.530;-9.118;2022-08-21T09:51:54;25.83;;;8.38;;
59681;SDS011;45548;39.530;-9.118;2022-08-21T09:59:44;24.83;;;7.28;;
59681;SDS011;45548;39.530;-9.118;2022-08-21T10:03:10;17.77;;;6.55;;
59681;SDS011;45548;39.530;-9.118;2022-08-21T10:06:38;22.30;;;6.88;;
59681;SDS011;45548;39.530;-9.118;2022-08-21T10:20:44;22.08;;;7.15;;
59681;SDS011;45548;39.530;-9.118;2022-08-21T10:24:36;22.73;;;8.75;;
59681;SDS011;45548;39.530;-9.118;2022-08-21T10:28:12;22.73;;;7.88;;
59681;SDS011;45548;39.530;-9.118;2022-08-21T10:35:27;21.05;;;6.85;;
59681;SDS011;45548;39.530;-9.118;2022-08-21T10:54:12;18.17;;;7.25;;
59681;SDS011;45548;39.530;-9.118;2022-08-21T10:57:51;15.25;;;5.47;;
59681;SDS011;45548;39.530;-9.118;2022-08-21T11:05:11;19.20;;;6.28;;
59681;SDS011;45548;39.530;-9.118;2022-08-21T11:08:42;21.33;;;7.50;;
59681;SDS011;45548;39.530;-9.118;2022-08-21T11:12:23;18.88;;;7.07;;
59681;SDS011;45548;39.530;-9.118;2022-08-21T11:15:56;21.05;;;5.90;;
59681;SDS011;45548;39.530;-9.118;2022-08-21T11:19:47;14.18;;;4.13;;
59681;SDS011;45548;39.530;-9.118;2022-08-21T11:23:33;16.75;;;5.97;;
59681;SDS011;45548;39.530;-9.118;2022-08-21T11:38:28;17.70;;;6.27;;
59681;SDS011;45548;39.530;-9.118;2022-08-21T11:45:51;17.85;;;6.30;;
59681;SDS011;45548;39.530;-9.118;2022-08-21T11:49:53;16.05;;;5.03;;
59681;SDS011;45548;39.530;-9.118;2022-08-21T11:57:01;18.08;;;6.22;;
59681;SDS011;45548;39.530;-9.118;2022-08-21T12:00:41;16.38;;;4.45;;
59681;SDS011;45548;39.530;-9.118;2022-08-21T12:11:30;14.70;;;4.45;;
59681;SDS011;45548;39.530;-9.118;2022-08-21T12:15:14;16.67;;;5.88;;
59681;SDS011;45548;39.530;-9.118;2022-08-21T12:18:41;10.93;;;4.07;;
59681;SDS011;45548;39.530;-9.118;2022-08-21T12:25:37;13.48;;;4.70;;
59681;SDS011;45548;39.530;-9.118;2022-08-21T12:32:53;16.70;;;4.97;;
59681;SDS011;45548;39.530;-9.118;2022-08-21T12:36:22;13.15;;;4.55;;
59681;SDS011;45548;39.530;-9.118;2022-08-21T12:39:52;13.23;;;4.57;;
59681;SDS011;45548;39.530;-9.118;2022-08-21T12:43:37;13.05;;;4.68;;
59681;SDS011;45548;39.530;-9.118;2022-08-21T12:47:06;13.40;;;3.83;;
59681;SDS011;45548;39.530;-9.118;2022-08-21T12:50:48;12.20;;;4.10;;
59681;SDS011;45548;39.530;-9.118;2022-08-21T12:54:24;7.00;;;2.80;;
59681;SDS011;45548;39.530;-9.118;2022-08-21T12:57:55;9.70;;;3.88;;
59681;SDS011;45548;39.530;-9.118;2022-08-21T13:02:00;11.43;;;3.55;;
59681;SDS011;45548;39.530;-9.118;2022-08-21T13:05:29;9.75;;;3.30;;
59681;SDS011;45548;39.530;-9.118;2022-08-21T13:08:57;11.48;;;3.88;;
59681;SDS011;45548;39.530;-9.118;2022-08-21T13:12:32;8.38;;;2.83;;
59681;SDS011;45548;39.530;-9.118;2022-08-21T13:15:58;11.82;;;4.20;;
59681;SDS011;45548;39.530;-9.118;2022-08-21T13:19:24;9.68;;;3.03;;
59681;SDS011;45548;39.530;-9.118;2022-08-21T13:22:50;8.68;;;3.25;;
59681;SDS011;45548;39.530;-9.118;2022-08-21T13:26:15;8.80;;;3.20;;
59681;SDS011;45548;39.530;-9.118;2022-08-21T13:29:44;9.25;;;4.05;;
59681;SDS011;45548;39.530;-9.118;2022-08-21T13:33:11;9.27;;;3.03;;
59681;SDS011;45548;39.530;-9.118;2022-08-21T13:36:37;10.43;;;3.15;;
59681;SDS011;45548;39.530;-9.118;2022-08-21T13:40:06;6.93;;;2.40;;
59681;SDS011;45548;39.530;-9.118;2022-08-21T13:44:02;11.88;;;4.15;;
59681;SDS011;45548;39.530;-9.118;2022-08-21T13:47:27;10.23;;;3.92;;
59681;SDS011;45548;39.530;-9.118;2022-08-21T13:50:54;8.80;;;3.00;;
59681;SDS011;45548;39.530;-9.118;2022-08-21T13:57:58;4.97;;;3.22;;
59681;SDS011;45548;39.530;-9.118;2022-08-21T14:04:59;7.13;;;2.55;;
59681;SDS011;45548;39.530;-9.118;2022-08-21T14:08:33;9.13;;;3.13;;
59681;SDS011;45548;39.530;-9.118;2022-08-21T14:12:16;6.65;;;2.20;;
59681;SDS011;45548;39.530;-9.118;2022-08-21T14:15:54;7.40;;;2.38;;
59681;SDS011;45548;39.530;-9.118;2022-08-21T14:19:24;8.23;;;2.65;;
59681;SDS011;45548;39.530;-9.118;2022-08-21T14:22:52;11.52;;;4.47;;
59681;SDS011;45548;39.530;-9.118;2022-08-21T14:26:30;8.13;;;2.50;;
59681;SDS011;45548;39.530;-9.118;2022-08-21T14:29:59;10.75;;;2.97;;
59681;SDS011;45548;39.530;-9.118;2022-08-21T14:33:37;9.75;;;3.65;;
59681;SDS011;45548;39.530;-9.118;2022-08-21T14:37:01;9.75;;;2.83;;
59681;SDS011;45548;39.530;-9.118;2022-08-21T14:40:25;8.93;;;2.53;;
59681;SDS011;45548;39.530;-9.118;2022-08-21T14:43:52;8.95;;;3.05;;
59681;SDS011;45548;39.530;-9.118;2022-08-21T14:47:20;10.63;;;2.88;;
59681;SDS011;45548;39.530;-9.118;2022-08-21T14:50:44;11.38;;;3.33;;
59681;SDS011;45548;39.530;-9.118;2022-08-21T14:54:08;9.02;;;3.17;;
59681;SDS011;45548;39.530;-9.118;2022-08-21T14:57:33;10.48;;;3.28;;
59681;SDS011;45548;39.530;-9.118;2022-08-21T15:00:58;8.68;;;3.13;;
59681;SDS011;45548;39.530;-9.118;2022-08-21T15:04:22;12.18;;;3.50;;
59681;SDS011;45548;39.530;-9.118;2022-08-21T15:07:46;8.88;;;2.58;;
59681;SDS011;45548;39.530;-9.118;2022-08-21T15:11:11;8.57;;;3.08;;
59681;SDS011;45548;39.530;-9.118;2022-08-21T15:14:38;9.82;;;2.45;;
59681;SDS011;45548;39.530;-9.118;2022-08-21T15:18:04;9.38;;;2.97;;
59681;SDS011;45548;39.530;-9.118;2022-08-21T15:21:28;15.68;;;3.28;;
59681;SDS011;45548;39.530;-9.118;2022-08-21T15:24:52;9.52;;;2.67;;
59681;SDS011;45548;39.530;-9.118;2022-08-21T15:28:20;10.65;;;3.05;;
59681;SDS011;45548;39.530;-9.118;2022-08-21T15:31:55;13.40;;;4.00;;
59681;SDS011;45548;39.530;-9.118;2022-08-21T15:35:20;11.50;;;2.50;;
59681;SDS011;45548;39.530;-9.118;2022-08-21T15:38:44;9.43;;;2.88;;
59681;SDS011;45548;39.530;-9.118;2022-08-21T15:42:09;11.63;;;3.25;;
59681;SDS011;45548;39.530;-9.118;2022-08-21T15:49:05;11.82;;;3.08;;
59681;SDS011;45548;39.530;-9.118;2022-08-21T15:52:32;10.10;;;2.83;;
59681;SDS011;45548;39.530;-9.118;2022-08-21T15:56:03;12.85;;;3.78;;
59681;SDS011;45548;39.530;-9.118;2022-08-21T15:59:27;12.10;;;3.38;;
59681;SDS011;45548;39.530;-9.118;2022-08-21T16:02:53;10.57;;;3.30;;
59681;SDS011;45548;39.530;-9.118;2022-08-21T16:06:19;10.90;;;3.55;;
59681;SDS011;45548;39.530;-9.118;2022-08-21T16:09:43;12.07;;;3.22;;
59681;SDS011;45548;39.530;-9.118;2022-08-21T16:13:11;11.45;;;3.50;;
59681;SDS011;45548;39.530;-9.118;2022-08-21T16:16:39;11.88;;;3.30;;
59681;SDS011;45548;39.530;-9.118;2022-08-21T16:20:06;11.27;;;3.25;;
59681;SDS011;45548;39.530;-9.118;2022-08-21T16:23:32;11.32;;;3.45;;
59681;SDS011;45548;39.530;-9.118;2022-08-21T16:26:56;9.30;;;3.22;;
59681;SDS011;45548;39.530;-9.118;2022-08-21T16:30:23;9.93;;;3.28;;
59681;SDS011;45548;39.530;-9.118;2022-08-21T16:33:49;11.93;;;3.58;;
59681;SDS011;45548;39.530;-9.118;2022-08-21T16:37:14;13.73;;;3.78;;
59681;SDS011;45548;39.530;-9.118;2022-08-21T16:40:39;16.30;;;4.53;;
59681;SDS011;45548;39.530;-9.118;2022-08-21T16:44:03;15.73;;;4.72;;
59681;SDS011;45548;39.530;-9.118;2022-08-21T16:47:33;13.98;;;4.22;;
59681;SDS011;45548;39.530;-9.118;2022-08-21T16:50:57;13.15;;;4.13;;
59681;SDS011;45548;39.530;-9.118;2022-08-21T16:54:21;15.02;;;3.85;;
59681;SDS011;45548;39.530;-9.118;2022-08-21T16:57:45;16.17;;;4.60;;
59681;SDS011;45548;39.530;-9.118;2022-08-21T17:01:13;14.23;;;4.65;;
59681;SDS011;45548;39.530;-9.118;2022-08-21T17:04:45;14.82;;;4.03;;
59681;SDS011;45548;39.530;-9.118;2022-08-21T17:08:09;14.80;;;4.68;;
59681;SDS011;45548;39.530;-9.118;2022-08-21T17:11:34;12.40;;;3.90;;
59681;SDS011;45548;39.530;-9.118;2022-08-21T17:15:00;14.43;;;4.32;;
59681;SDS011;45548;39.530;-9.118;2022-08-21T17:18:25;12.25;;;4.05;;
59681;SDS011;45548;39.530;-9.118;2022-08-21T17:21:49;20.92;;;5.05;;
59681;SDS011;45548;39.530;-9.118;2022-08-21T17:25:13;12.30;;;4.50;;
59681;SDS011;45548;39.530;-9.118;2022-08-21T17:28:40;13.95;;;4.47;;
59681;SDS011;45548;39.530;-9.118;2022-08-21T17:32:10;20.02;;;5.90;;
59681;SDS011;45548;39.530;-9.118;2022-08-21T17:35:34;17.20;;;5.25;;
59681;SDS011;45548;39.530;-9.118;2022-08-21T17:38:59;14.60;;;5.05;;
59681;SDS011;45548;39.530;-9.118;2022-08-21T17:42:23;18.90;;;5.72;;
59681;SDS011;45548;39.530;-9.118;2022-08-21T17:45:47;16.25;;;5.38;;
59681;SDS011;45548;39.530;-9.118;2022-08-21T17:49:12;14.00;;;5.35;;
59681;SDS011;45548;39.530;-9.118;2022-08-21T17:52:37;15.50;;;5.50;;
59681;SDS011;45548;39.530;-9.118;2022-08-21T17:56:03;15.82;;;6.20;;
59681;SDS011;45548;39.530;-9.118;2022-08-21T17:59:27;24.52;;;6.93;;
59681;SDS011;45548;39.530;-9.118;2022-08-21T18:03:03;19.50;;;7.00;;
59681;SDS011;45548;39.530;-9.118;2022-08-21T18:06:28;21.50;;;7.13;;
59681;SDS011;45548;39.530;-9.118;2022-08-21T18:09:52;20.70;;;7.82;;
59681;SDS011;45548;39.530;-9.118;2022-08-21T18:13:38;25.30;;;8.55;;
59681;SDS011;45548;39.530;-9.118;2022-08-21T18:17:05;25.08;;;7.78;;
59681;SDS011;45548;39.530;-9.118;2022-08-21T18:20:31;36.10;;;8.82;;
59681;SDS011;45548;39.530;-9.118;2022-08-21T18:23:56;31.63;;;7.63;;
59681;SDS011;45548;39.530;-9.118;2022-08-21T18:27:20;52.45;;;8.63;;
59681;SDS011;45548;39.530;-9.118;2022-08-21T18:30:45;43.35;;;9.15;;
59681;SDS011;45548;39.530;-9.118;2022-08-21T18:34:19;43.95;;;9.23;;
59681;SDS011;45548;39.530;-9.118;2022-08-21T18:37:44;27.17;;;7.28;;
59681;SDS011;45548;39.530;-9.118;2022-08-21T18:41:08;29.88;;;7.47;;
59681;SDS011;45548;39.530;-9.118;2022-08-21T18:44:33;28.70;;;8.50;;
59681;SDS011;45548;39.530;-9.118;2022-08-21T18:48:01;38.22;;;10.88;;
59681;SDS011;45548;39.530;-9.118;2022-08-21T18:51:25;23.73;;;10.18;;
59681;SDS011;45548;39.530;-9.118;2022-08-21T18:54:49;43.25;;;11.38;;
59681;SDS011;45548;39.530;-9.118;2022-08-21T18:58:14;18.95;;;9.07;;
59681;SDS011;45548;39.530;-9.118;2022-08-21T19:01:39;16.95;;;7.10;;
59681;SDS011;45548;39.530;-9.118;2022-08-21T19:05:04;15.52;;;6.68;;
59681;SDS011;45548;39.530;-9.118;2022-08-21T19:08:29;32.80;;;8.50;;
59681;SDS011;45548;39.530;-9.118;2022-08-21T19:11:54;26.40;;;9.43;;
59681;SDS011;45548;39.530;-9.118;2022-08-21T19:15:19;24.20;;;10.05;;
59681;SDS011;45548;39.530;-9.118;2022-08-21T19:18:44;18.65;;;8.88;;
59681;SDS011;45548;39.530;-9.118;2022-08-21T19:22:08;86.00;;;14.18;;
59681;SDS011;45548;39.530;-9.118;2022-08-21T19:25:35;23.67;;;10.77;;
59681;SDS011;45548;39.530;-9.118;2022-08-21T19:29:00;33.72;;;12.13;;
59681;SDS011;45548;39.530;-9.118;2022-08-21T19:32:25;27.23;;;10.43;;
59681;SDS011;45548;39.530;-9.118;2022-08-21T19:35:53;66.68;;;14.68;;
59681;SDS011;45548;39.530;-9.118;2022-08-21T19:39:21;40.13;;;11.77;;
59681;SDS011;45548;39.530;-9.118;2022-08-21T19:42:45;39.40;;;11.07;;
59681;SDS011;45548;39.530;-9.118;2022-08-21T19:46:11;36.65;;;10.10;;
59681;SDS011;45548;39.530;-9.118;2022-08-21T19:49:42;40.85;;;9.63;;
59681;SDS011;45548;39.530;-9.118;2022-08-21T19:53:09;54.72;;;9.30;;
59681;SDS011;45548;39.530;-9.118;2022-08-21T19:56:38;22.90;;;8.60;;
59681;SDS011;45548;39.530;-9.118;2022-08-21T20:00:04;20.42;;;8.43;;
59681;SDS011;45548;39.530;-9.118;2022-08-21T20:03:30;78.85;;;10.80;;
59681;SDS011;45548;39.530;-9.118;2022-08-21T20:06:55;23.65;;;8.45;;
59681;SDS011;45548;39.530;-9.118;2022-08-21T20:10:19;109.95;;;12.20;;
59681;SDS011;45548;39.530;-9.118;2022-08-21T20:13:46;37.15;;;7.20;;
59681;SDS011;45548;39.530;-9.118;2022-08-21T20:17:12;80.00;;;9.27;;
59681;SDS011;45548;39.530;-9.118;2022-08-21T20:20:37;61.17;;;8.15;;
59681;SDS011;45548;39.530;-9.118;2022-08-21T20:24:02;36.78;;;7.18;;
59681;SDS011;45548;39.530;-9.118;2022-08-21T20:27:26;40.85;;;7.18;;
59681;SDS011;45548;39.530;-9.118;2022-08-21T20:30:51;51.15;;;6.90;;
59681;SDS011;45548;39.530;-9.118;2022-08-21T20:34:16;34.10;;;5.88;;
59681;SDS011;45548;39.530;-9.118;2022-08-21T20:37:40;91.88;;;10.25;;
59681;SDS011;45548;39.530;-9.118;2022-08-21T20:41:04;94.28;;;12.65;;
59681;SDS011;45548;39.530;-9.118;2022-08-21T20:44:30;104.65;;;9.45;;
59681;SDS011;45548;39.530;-9.118;2022-08-21T20:48:08;59.45;;;8.07;;
59681;SDS011;45548;39.530;-9.118;2022-08-21T20:51:37;51.33;;;6.68;;
59681;SDS011;45548;39.530;-9.118;2022-08-21T20:55:08;44.63;;;5.60;;
59681;SDS011;45548;39.530;-9.118;2022-08-21T20:58:39;30.30;;;5.07;;
59681;SDS011;45548;39.530;-9.118;2022-08-21T21:06:06;98.73;;;9.00;;
59681;SDS011;45548;39.530;-9.118;2022-08-21T21:09:33;69.95;;;7.57;;
